createdAt,value
2023-05-19T00:01:07.615Z,101190.13
2023-05-19T00:03:40.847Z,101186.56
2023-05-19T00:06:10.400Z,101188.19
2023-05-19T00:08:39.991Z,101185.53
2023-05-19T00:11:09.299Z,101181.25
2023-05-19T00:13:38.319Z,101178.00
2023-05-19T00:16:07.773Z,101186.94
2023-05-19T00:18:37.865Z,101198.00
2023-05-19T00:21:06.516Z,101174.66
2023-05-19T00:23:35.048Z,101185.44
2023-05-19T00:26:03.683Z,101188.41
2023-05-19T00:28:32.435Z,101182.97
2023-05-19T00:31:01.449Z,101170.53
2023-05-19T00:33:30.120Z,101179.94
2023-05-19T00:36:00.136Z,101172.25
2023-05-19T00:38:28.790Z,101176.63
2023-05-19T00:40:57.514Z,101179.00
2023-05-19T00:43:26.850Z,101188.38
2023-05-19T00:45:55.488Z,101175.22
2023-05-19T00:48:24.690Z,101168.13
2023-05-19T00:50:55.040Z,101180.97
2023-05-19T00:53:26.556Z,101161.25
2023-05-19T00:55:55.443Z,101180.84
2023-05-19T00:58:25.877Z,101176.53
2023-05-19T01:00:56.416Z,101181.84
2023-05-19T01:03:25.511Z,101179.19
2023-05-19T01:05:54.389Z,101173.28
2023-05-19T01:08:25.146Z,101179.44
2023-05-19T01:10:54.647Z,101171.47
2023-05-19T01:13:23.343Z,101172.44
2023-05-19T01:16:02.105Z,101171.75
2023-05-19T01:18:56.611Z,101161.66
2023-05-19T01:21:50.392Z,101174.69
2023-05-19T01:24:48.471Z,101169.03
2023-05-19T01:27:45.799Z,101180.00
2023-05-19T01:30:27.524Z,101184.59
2023-05-19T01:32:59.837Z,101180.25
2023-05-19T01:35:29.407Z,101172.41
2023-05-19T01:38:00.335Z,101174.50
2023-05-19T01:40:32.431Z,101167.34
2023-05-19T01:43:04.169Z,101188.06
2023-05-19T01:45:35.670Z,101190.56
2023-05-19T01:48:09.999Z,101177.13
2023-05-19T01:50:39.869Z,101179.66
2023-05-19T01:53:08.655Z,101170.97
2023-05-19T01:55:38.976Z,101179.66
2023-05-19T01:58:17.100Z,101178.78
2023-05-19T02:00:55.104Z,101179.91
2023-05-19T02:03:34.553Z,101168.41
2023-05-19T02:06:15.847Z,101168.88
2023-05-19T02:08:50.031Z,101162.53
2023-05-19T02:11:29.191Z,101170.09
2023-05-19T02:14:02.857Z,101168.28
2023-05-19T02:16:34.206Z,101170.38
2023-05-19T02:19:03.240Z,101170.38
2023-05-19T02:21:32.204Z,101169.50
2023-05-19T02:24:01.224Z,101167.97
2023-05-19T02:26:30.808Z,101159.75
2023-05-19T02:28:59.723Z,101162.69
2023-05-19T02:31:28.580Z,101163.66
2023-05-19T02:33:59.485Z,101165.59
2023-05-19T02:36:28.962Z,101157.03
2023-05-19T02:38:57.463Z,101157.63
2023-05-19T02:41:26.249Z,101158.59
2023-05-19T02:43:54.842Z,101157.19
2023-05-19T02:46:23.602Z,101165.84
2023-05-19T02:48:52.851Z,101158.16
2023-05-19T02:51:23.065Z,101161.63
2023-05-19T02:53:51.959Z,101143.16
2023-05-19T02:56:21.573Z,101142.88
2023-05-19T02:58:50.201Z,101160.22
2023-05-19T03:01:18.863Z,101163.84
2023-05-19T03:03:47.623Z,101154.31
2023-05-19T03:06:18.699Z,101157.94
2023-05-19T03:08:48.990Z,101163.16
2023-05-19T03:11:17.606Z,101152.66
2023-05-19T03:13:46.420Z,101151.50
2023-05-19T03:16:15.477Z,101157.25
2023-05-19T03:18:45.776Z,101155.31
2023-05-19T03:21:14.604Z,101155.44
2023-05-19T03:23:43.319Z,101147.16
2023-05-19T03:26:13.338Z,101142.81
2023-05-19T03:28:42.254Z,101150.41
2023-05-19T03:31:11.121Z,101142.00
2023-05-19T03:33:40.067Z,101155.31
2023-05-19T03:36:09.442Z,101148.47
2023-05-19T03:38:38.028Z,101158.09
2023-05-19T03:41:06.912Z,101148.56
2023-05-19T03:43:36.952Z,101140.06
2023-05-19T03:46:06.284Z,101151.22
2023-05-19T03:48:35.446Z,101161.56
2023-05-19T03:51:04.649Z,101157.13
2023-05-19T03:53:33.733Z,101167.59
2023-05-19T03:56:02.686Z,101154.75
2023-05-19T03:58:31.841Z,101149.44
2023-05-19T04:01:02.374Z,101156.97
2023-05-19T04:03:31.039Z,101152.66
2023-05-19T04:06:00.315Z,101169.88
2023-05-19T04:08:29.264Z,101152.91
2023-05-19T04:10:58.277Z,101169.88
2023-05-19T04:13:26.877Z,101168.06
2023-05-19T04:15:56.293Z,101171.53
2023-05-19T04:18:28.795Z,101164.50
2023-05-19T04:20:58.353Z,101190.91
2023-05-19T04:23:26.951Z,101172.72
2023-05-19T04:25:57.396Z,101168.72
2023-05-19T04:28:26.170Z,101177.00
2023-05-19T04:30:55.124Z,101178.38
2023-05-19T04:33:23.765Z,101182.69
2023-05-19T04:35:55.597Z,101160.31
2023-05-19T04:38:24.427Z,101161.63
2023-05-19T04:40:53.424Z,101168.19
2023-05-19T04:43:22.823Z,101158.72
2023-05-19T04:45:51.812Z,101164.00
2023-05-19T04:48:21.913Z,101169.00
2023-05-19T04:50:52.380Z,101169.50
2023-05-19T04:53:23.111Z,101167.56
2023-05-19T04:55:51.695Z,101164.81
2023-05-19T04:58:20.261Z,101156.03
2023-05-19T05:00:48.948Z,101174.28
2023-05-19T05:03:18.535Z,101171.38
2023-05-19T05:05:47.279Z,101181.72
2023-05-19T05:08:22.394Z,101154.75
2023-05-19T05:10:57.948Z,101176.16
2023-05-19T05:13:27.491Z,101181.09
2023-05-19T05:15:56.851Z,101179.97
2023-05-19T05:18:25.982Z,101171.91
2023-05-19T05:20:55.167Z,101173.31
2023-05-19T05:23:24.694Z,101179.44
2023-05-19T05:25:55.650Z,101181.72
2023-05-19T05:28:24.827Z,101179.44
2023-05-19T05:30:53.328Z,101180.84
2023-05-19T05:33:22.644Z,101187.41
2023-05-19T05:35:51.724Z,101179.97
2023-05-19T05:38:28.776Z,101195.34
2023-05-19T05:40:58.822Z,101186.69
2023-05-19T05:43:30.178Z,101173.13
2023-05-19T05:45:58.942Z,101175.09
2023-05-19T05:48:28.381Z,101179.19
2023-05-19T05:50:59.443Z,101164.19
2023-05-19T05:53:33.786Z,101181.44
2023-05-19T05:56:05.977Z,101179.25
2023-05-19T05:58:36.834Z,101180.94
2023-05-19T06:01:06.398Z,101174.47
2023-05-19T06:03:35.017Z,101181.72
2023-05-19T06:06:03.904Z,101182.56
2023-05-19T06:08:32.697Z,101180.84
2023-05-19T06:11:01.266Z,101186.66
2023-05-19T06:13:31.539Z,101178.22
2023-05-19T06:16:02.003Z,101183.66
2023-05-19T06:18:31.347Z,101192.66
2023-05-19T06:21:00.135Z,101186.16
2023-05-19T06:23:29.563Z,101195.16
2023-05-19T06:25:58.318Z,101196.78
2023-05-19T06:28:27.053Z,101197.75
2023-05-19T06:30:57.845Z,101199.06
2023-05-19T06:33:28.221Z,101197.09
2023-05-19T06:35:57.862Z,101202.75
2023-05-19T06:38:26.984Z,101196.59
2023-05-19T06:40:55.754Z,101198.16
2023-05-19T06:43:26.480Z,101206.66
2023-05-19T06:45:56.408Z,101211.94
2023-05-19T06:48:25.157Z,101197.97
2023-05-19T06:50:54.428Z,101204.16
2023-05-19T06:53:23.001Z,101202.78
2023-05-19T06:56:00.022Z,101212.31
2023-05-19T06:58:29.009Z,101201.94
2023-05-19T07:00:59.053Z,101205.59
2023-05-19T07:03:27.771Z,101191.25
2023-05-19T07:05:57.196Z,101211.41
2023-05-19T07:08:27.946Z,101212.84
2023-05-19T07:10:56.796Z,101213.09
2023-05-19T07:13:27.346Z,101213.81
2023-05-19T07:15:57.682Z,101208.75
2023-05-19T07:18:30.186Z,101214.78
2023-05-19T07:20:58.803Z,101216.47
2023-05-19T07:23:33.700Z,101210.88
2023-05-19T07:26:11.394Z,101209.78
2023-05-19T07:28:51.033Z,101216.75
2023-05-19T07:31:20.947Z,101215.66
2023-05-19T07:33:53.027Z,101216.22
2023-05-19T07:36:23.145Z,101200.28
2023-05-19T07:38:51.836Z,101216.09
2023-05-19T07:41:23.398Z,101215.97
2023-05-19T07:43:51.905Z,101220.28
2023-05-19T07:46:22.422Z,101219.31
2023-05-19T07:48:52.681Z,101218.78
2023-05-19T07:51:21.235Z,101227.09
2023-05-19T07:53:49.748Z,101211.59
2023-05-19T07:56:18.215Z,101214.69
2023-05-19T07:58:49.718Z,101221.75
2023-05-19T08:01:18.572Z,101215.59
2023-05-19T08:03:47.282Z,101223.00
2023-05-19T08:06:17.503Z,101217.28
2023-05-19T08:08:46.618Z,101212.94
2023-05-19T08:11:18.417Z,101220.78
2023-05-19T08:13:48.913Z,101215.47
2023-05-19T08:16:18.368Z,101216.63
2023-05-19T08:18:47.424Z,101213.00
2023-05-19T08:21:18.128Z,101207.16
2023-05-19T08:23:46.859Z,101218.06
2023-05-19T08:26:15.654Z,101203.25
2023-05-19T08:28:44.615Z,101211.38
2023-05-19T08:31:13.426Z,101203.28
2023-05-19T08:33:42.833Z,101208.34
2023-05-19T08:36:11.483Z,101203.41
2023-05-19T08:38:41.960Z,101197.69
2023-05-19T08:41:10.751Z,101204.03
2023-05-19T08:43:40.181Z,101203.88
2023-05-19T08:46:08.951Z,101199.72
2023-05-19T08:48:43.911Z,101202.81
2023-05-19T08:51:27.528Z,101194.97
2023-05-19T08:54:06.432Z,101198.19
2023-05-19T08:56:35.678Z,101209.38
2023-05-19T08:59:04.463Z,101201.84
2023-05-19T09:01:33.697Z,101197.78
2023-05-19T09:04:02.797Z,101196.94
2023-05-19T09:06:32.555Z,101187.00
2023-05-19T09:09:03.014Z,101194.84
2023-05-19T09:11:31.482Z,101201.00
2023-05-19T09:13:59.942Z,101191.91
2023-05-19T09:16:30.169Z,101196.38
2023-05-19T09:19:01.547Z,101200.28
2023-05-19T09:21:33.992Z,101201.00
2023-05-19T09:24:09.754Z,101191.88
2023-05-19T09:26:39.571Z,101204.75
2023-05-19T09:29:14.798Z,101201.69
2023-05-19T09:31:50.738Z,101196.66
2023-05-19T09:34:19.347Z,101188.50
2023-05-19T09:36:49.698Z,101192.97
2023-05-19T09:39:20.645Z,101187.78
2023-05-19T09:41:52.693Z,101180.38
2023-05-19T09:44:24.569Z,101183.31
2023-05-19T09:46:55.511Z,101183.13
2023-05-19T09:49:24.833Z,101181.16
2023-05-19T09:51:55.673Z,101178.22
2023-05-19T09:54:26.279Z,101174.41
2023-05-19T09:57:00.225Z,101173.59
2023-05-19T09:59:32.898Z,101173.53
2023-05-19T10:02:03.575Z,101169.63
2023-05-19T10:04:34.304Z,101169.06
2023-05-19T10:07:05.833Z,101164.31
2023-05-19T10:09:38.179Z,101156.75
2023-05-19T10:12:10.793Z,101159.81
2023-05-19T10:14:39.768Z,101158.41
2023-05-19T10:17:09.723Z,101155.75
2023-05-19T10:19:40.215Z,101156.16
2023-05-19T10:22:08.744Z,101158.16
2023-05-19T10:24:38.946Z,101159.13
2023-05-19T10:27:12.335Z,101159.69
2023-05-19T10:29:46.087Z,101153.97
2023-05-19T10:32:18.511Z,101148.34
2023-05-19T10:35:25.115Z,101149.00
2023-05-19T10:38:00.518Z,101148.28
2023-05-19T10:40:34.861Z,101141.00
2023-05-19T10:43:22.625Z,101144.19
2023-05-19T10:45:54.593Z,101150.75
2023-05-19T10:48:23.335Z,101146.03
2023-05-19T10:50:56.495Z,101147.81
2023-05-19T10:53:32.728Z,101148.38
2023-05-19T10:56:04.458Z,101161.25
2023-05-19T10:58:52.405Z,101160.03
2023-05-19T11:01:22.409Z,101169.41
2023-05-19T11:03:52.552Z,101165.06
2023-05-19T11:06:22.935Z,101162.19
2023-05-19T11:08:56.633Z,101156.56
2023-05-19T11:11:26.837Z,101158.66
2023-05-19T11:13:56.541Z,101162.44
2023-05-19T11:16:32.994Z,101155.88
2023-05-19T11:19:01.982Z,101143.69
2023-05-19T11:21:44.810Z,101160.47
2023-05-19T11:24:37.560Z,101154.69
2023-05-19T11:27:26.509Z,101153.03
2023-05-19T11:29:56.197Z,101143.78
2023-05-19T11:32:28.664Z,101148.38
2023-05-19T11:34:58.043Z,101157.97
2023-05-19T11:37:27.042Z,101141.00
2023-05-19T11:39:55.529Z,101157.75
2023-05-19T11:42:25.532Z,101153.25
2023-05-19T11:44:57.304Z,101160.31
2023-05-19T11:47:25.827Z,101165.19
2023-05-19T11:49:56.876Z,101153.63
2023-05-19T11:52:27.656Z,101161.91
2023-05-19T11:54:57.059Z,101160.66
2023-05-19T11:57:28.000Z,101159.00
2023-05-19T11:59:57.262Z,101159.00
2023-05-19T12:02:28.091Z,101163.03
2023-05-19T12:04:57.276Z,101152.94
2023-05-19T12:07:26.590Z,101160.22
2023-05-19T12:10:00.071Z,101153.81
2023-05-19T12:12:32.706Z,101158.78
2023-05-19T12:15:06.437Z,101158.66
2023-05-19T12:17:35.203Z,101130.66
2023-05-19T12:20:05.170Z,101147.41
2023-05-19T12:22:34.037Z,101145.94
2023-05-19T12:25:03.135Z,101149.97
2023-05-19T12:27:37.539Z,101155.28
2023-05-19T12:30:07.128Z,101150.38
2023-05-19T12:32:36.862Z,101158.34
2023-05-19T12:35:09.610Z,101156.81
2023-05-19T12:37:44.139Z,101140.19
2023-05-19T12:40:18.619Z,101157.19
2023-05-19T12:42:52.762Z,101159.63
2023-05-19T12:45:26.267Z,101157.25
2023-05-19T12:47:59.961Z,101155.41
2023-05-19T12:50:33.184Z,101151.06
2023-05-19T12:53:02.661Z,101149.41
2023-05-19T12:55:32.387Z,101149.06
2023-05-19T12:58:09.154Z,101145.31
2023-05-19T13:00:42.995Z,101146.84
2023-05-19T13:03:19.126Z,101151.97
2023-05-19T13:05:49.969Z,101147.88
2023-05-19T13:08:21.931Z,101137.22
2023-05-19T13:10:53.500Z,101132.78
2023-05-19T13:13:25.227Z,101149.88
2023-05-19T13:15:54.155Z,101141.19
2023-05-19T13:18:23.117Z,101152.56
2023-05-19T13:20:53.276Z,101149.91
2023-05-19T13:23:22.240Z,101147.94
2023-05-19T13:25:52.158Z,101144.75
2023-05-19T13:28:20.840Z,101150.19
2023-05-19T13:30:51.608Z,101142.66
2023-05-19T13:33:20.792Z,101141.38
2023-05-19T13:35:50.719Z,101146.75
2023-05-19T13:38:22.101Z,101146.31
2023-05-19T13:40:54.634Z,101117.91
2023-05-19T13:43:23.840Z,101124.00
2023-05-19T13:45:55.171Z,101121.19
2023-05-19T13:48:26.441Z,101140.72
2023-05-19T13:50:55.982Z,101150.81
2023-05-19T13:53:24.952Z,101141.00
2023-05-19T13:55:55.496Z,101141.53
2023-05-19T13:58:24.478Z,101151.22
2023-05-19T14:00:56.665Z,101141.22
2023-05-19T14:03:25.412Z,101143.59
2023-05-19T14:05:55.487Z,101141.69
2023-05-19T14:08:24.978Z,101143.06
2023-05-19T14:10:55.246Z,101135.84
2023-05-19T14:13:33.639Z,101127.63
2023-05-19T14:16:06.677Z,101123.63
2023-05-19T14:18:35.502Z,101143.69
2023-05-19T14:21:04.094Z,101145.66
2023-05-19T14:23:33.678Z,101136.75
2023-05-19T14:26:02.414Z,101133.28
2023-05-19T14:28:31.709Z,101140.09
2023-05-19T14:31:00.289Z,101145.22
2023-05-19T14:33:34.898Z,101141.69
2023-05-19T14:36:05.774Z,101137.47
2023-05-19T14:38:40.258Z,101118.41
2023-05-19T14:41:10.186Z,101111.47
2023-05-19T14:43:43.877Z,101135.28
2023-05-19T14:46:15.100Z,101118.38
2023-05-19T14:48:45.519Z,101137.34
2023-05-19T14:51:15.080Z,101124.38
2023-05-19T14:53:43.790Z,101134.66
2023-05-19T14:56:12.771Z,101131.50
2023-05-19T14:58:41.760Z,101134.72
2023-05-19T15:01:10.803Z,101126.59
2023-05-19T15:03:39.820Z,101130.66
2023-05-19T15:06:13.038Z,101135.16
2023-05-19T15:08:46.149Z,101135.97
2023-05-19T15:11:15.197Z,101137.81
2023-05-19T15:13:44.277Z,101129.94
2023-05-19T15:16:22.283Z,101132.44
2023-05-19T15:18:51.744Z,101134.94
2023-05-19T15:21:21.911Z,101136.06
2023-05-19T15:23:53.353Z,101130.16
2023-05-19T15:26:23.163Z,101139.88
2023-05-19T15:28:55.160Z,101139.25
2023-05-19T15:31:24.494Z,101136.16
2023-05-19T15:33:57.350Z,101111.13
2023-05-19T15:36:28.791Z,101119.59
2023-05-19T15:39:00.523Z,101130.72
2023-05-19T15:41:29.644Z,101119.66
2023-05-19T15:44:01.778Z,101104.44
2023-05-19T15:46:35.378Z,101122.72
2023-05-19T15:49:04.503Z,101119.47
2023-05-19T15:51:35.570Z,101104.34
2023-05-19T15:54:04.672Z,101122.44
2023-05-19T15:56:33.987Z,101122.03
2023-05-19T15:59:03.196Z,101103.06
2023-05-19T16:01:32.420Z,101111.59
2023-05-19T16:04:04.041Z,101103.59
2023-05-19T16:06:34.684Z,101109.91
2023-05-19T16:09:03.869Z,101118.66
2023-05-19T16:11:32.801Z,101114.44
2023-05-19T16:14:01.674Z,101124.00
2023-05-19T16:16:30.563Z,101120.66
2023-05-19T16:18:59.997Z,101118.16
2023-05-19T16:21:29.221Z,101113.88
2023-05-19T16:24:00.234Z,101116.53
2023-05-19T16:26:29.348Z,101114.25
2023-05-19T16:28:59.876Z,101107.56
2023-05-19T16:31:29.020Z,101117.59
2023-05-19T16:33:59.051Z,101095.31
2023-05-19T16:36:28.522Z,101123.25
2023-05-19T16:38:59.073Z,101108.47
2023-05-19T16:41:29.969Z,101119.91
2023-05-19T16:43:59.052Z,101102.00
2023-05-19T16:46:29.217Z,101116.25
2023-05-19T16:49:01.976Z,101097.88
2023-05-19T16:51:30.541Z,101096.38
2023-05-19T16:54:00.775Z,101103.88
2023-05-19T16:56:29.842Z,101102.53
2023-05-19T16:58:58.895Z,101107.03
2023-05-19T17:01:27.681Z,101107.09
2023-05-19T17:03:56.794Z,101109.34
2023-05-19T17:06:26.928Z,101105.66
2023-05-19T17:08:56.213Z,101117.91
2023-05-19T17:11:27.312Z,101111.00
2023-05-19T17:13:56.929Z,101116.53
2023-05-19T17:16:26.514Z,101118.53
2023-05-19T17:18:56.596Z,101107.25
2023-05-19T17:21:25.962Z,101107.19
2023-05-19T17:23:57.077Z,101103.06
2023-05-19T17:26:28.337Z,101113.94
2023-05-19T17:29:04.014Z,101121.50
2023-05-19T17:31:36.219Z,101119.66
2023-05-19T17:34:06.070Z,101122.31
2023-05-19T17:36:35.707Z,101120.34
2023-05-19T17:39:13.454Z,101125.41
2023-05-19T17:41:47.108Z,101127.09
2023-05-19T17:44:17.053Z,101107.78
2023-05-19T17:46:49.410Z,101113.63
2023-05-19T17:49:19.428Z,101131.00
2023-05-19T17:51:49.708Z,101125.84
2023-05-19T17:54:20.554Z,101127.09
2023-05-19T17:56:57.306Z,101117.56
2023-05-19T17:59:27.388Z,101133.56
2023-05-19T18:02:00.034Z,101133.41
2023-05-19T18:04:31.544Z,101125.41
2023-05-19T18:07:01.103Z,101118.97
2023-05-19T18:09:32.899Z,101123.19
2023-05-19T18:12:09.895Z,101114.63
2023-05-19T18:14:39.720Z,101101.22
2023-05-19T18:17:09.008Z,101125.00
2023-05-19T18:19:40.973Z,101113.44
2023-05-19T18:22:13.555Z,101121.25
2023-05-19T18:24:47.574Z,101120.75
2023-05-19T18:27:17.991Z,101124.41
2023-05-19T18:29:47.664Z,101117.41
2023-05-19T18:32:18.360Z,101114.88
2023-05-19T18:34:47.346Z,101122.50
2023-05-19T18:37:16.229Z,101119.31
2023-05-19T18:39:45.106Z,101121.66
2023-05-19T18:42:27.956Z,101107.34
2023-05-19T18:44:56.652Z,101128.59
2023-05-19T18:47:25.437Z,101120.66
2023-05-19T18:49:54.482Z,101129.81
2023-05-19T18:52:24.247Z,101128.59
2023-05-19T18:54:53.396Z,101111.69
2023-05-19T18:57:23.572Z,101133.63
2023-05-19T18:59:54.505Z,101119.09
2023-05-19T19:02:23.553Z,101138.66
2023-05-19T19:04:53.226Z,101123.56
2023-05-19T19:07:22.487Z,101145.97
2023-05-19T19:09:51.887Z,101132.84
2023-05-19T19:12:20.889Z,101143.59
2023-05-19T19:14:52.606Z,101154.13
2023-05-19T19:17:21.842Z,101147.94
2023-05-19T19:19:50.817Z,101151.28
2023-05-19T19:22:19.643Z,101158.31
2023-05-19T19:24:48.537Z,101160.97
2023-05-19T19:27:17.999Z,101158.59
2023-05-19T19:29:46.806Z,101156.94
2023-05-19T19:32:18.630Z,101159.47
2023-05-19T19:34:49.949Z,101160.16
2023-05-19T19:37:18.449Z,101154.94
2023-05-19T19:39:47.135Z,101146.19
2023-05-19T19:42:15.879Z,101156.94
2023-05-19T19:44:44.456Z,101159.59
2023-05-19T19:47:13.110Z,101161.25
2023-05-19T19:49:43.166Z,101161.75
2023-05-19T19:52:11.656Z,101164.94
2023-05-19T19:54:41.330Z,101156.94
2023-05-19T19:57:11.916Z,101145.50
2023-05-19T19:59:42.252Z,101161.44
2023-05-19T20:02:18.319Z,101145.88
2023-05-19T20:04:51.753Z,101165.91
2023-05-19T20:07:21.175Z,101162.03
2023-05-19T20:09:51.838Z,101163.16
2023-05-19T20:12:20.831Z,101166.81
2023-05-19T20:14:51.559Z,101165.44
2023-05-19T20:17:20.377Z,101148.16
2023-05-19T20:19:51.476Z,101171.38
2023-05-19T20:22:20.152Z,101165.66
2023-05-19T20:24:49.010Z,101163.16
2023-05-19T20:27:20.708Z,101165.94
2023-05-19T20:29:49.708Z,101164.25
2023-05-19T20:32:18.419Z,101167.22
2023-05-19T20:34:48.526Z,101167.41
2023-05-19T20:37:18.871Z,101150.59
2023-05-19T20:39:48.378Z,101150.50
2023-05-19T20:42:17.030Z,101168.41
2023-05-19T20:44:45.808Z,101174.28
2023-05-19T20:47:14.316Z,101167.13
2023-05-19T20:49:42.963Z,101172.06
2023-05-19T20:52:11.872Z,101170.69
2023-05-19T20:54:43.800Z,101154.03
2023-05-19T20:57:12.322Z,101155.59
2023-05-19T20:59:40.912Z,101156.19
2023-05-19T21:02:09.659Z,101157.84
2023-05-19T21:04:38.840Z,101156.19
2023-05-19T21:07:07.722Z,101147.50
2023-05-19T21:09:36.626Z,101144.41
2023-05-19T21:12:07.157Z,101158.16
2023-05-19T21:14:35.721Z,101154.06
2023-05-19T21:17:04.884Z,101151.16
2023-05-19T21:19:34.992Z,101145.69
2023-05-19T21:22:03.704Z,101140.47
2023-05-19T21:24:32.661Z,101156.31
2023-05-19T21:27:01.360Z,101154.63
2023-05-19T21:29:31.446Z,101153.50
2023-05-19T21:32:00.608Z,101151.13
2023-05-19T21:34:30.355Z,101149.47
2023-05-19T21:36:58.843Z,101150.59
2023-05-19T21:39:27.403Z,101143.34
2023-05-19T21:41:55.987Z,101152.41
2023-05-19T21:44:25.452Z,101149.50
2023-05-19T21:46:59.163Z,101145.88
2023-05-19T21:49:31.510Z,101151.47
2023-05-19T21:52:03.575Z,101147.56
2023-05-19T21:54:32.144Z,101148.72
2023-05-19T21:57:00.838Z,101149.09
2023-05-19T21:59:29.775Z,101148.41
2023-05-19T22:02:00.200Z,101151.38
2023-05-19T22:04:31.809Z,101147.03
2023-05-19T22:07:00.528Z,101151.19
2023-05-19T22:09:31.710Z,101126.91
2023-05-19T22:12:00.334Z,101137.53
2023-05-19T22:14:28.876Z,101138.66
2023-05-19T22:16:58.841Z,101152.06
2023-05-19T22:19:27.520Z,101140.03
2023-05-19T22:22:05.986Z,101150.97
2023-05-19T22:24:41.504Z,101138.94
2023-05-19T22:27:10.260Z,101142.00
2023-05-19T22:29:39.765Z,101133.03
2023-05-19T22:32:12.447Z,101131.06
2023-05-19T22:34:41.309Z,101140.31
2023-05-19T22:37:09.926Z,101122.25
2023-05-19T22:39:39.871Z,101123.53
2023-05-19T22:42:08.610Z,101123.81
2023-05-19T22:44:37.373Z,101126.31
2023-05-19T22:47:06.401Z,101122.69
2023-05-19T22:49:36.487Z,101116.53
2023-05-19T22:52:05.257Z,101117.94
2023-05-19T22:54:34.023Z,101125.81
2023-05-19T22:57:05.166Z,101135.88
2023-05-19T22:59:33.973Z,101135.19
2023-05-19T23:02:02.663Z,101128.75
2023-05-19T23:04:31.243Z,101141.19
2023-05-19T23:07:04.346Z,101137.56
2023-05-19T23:09:32.871Z,101136.44
2023-05-19T23:12:01.946Z,101133.50
2023-05-19T23:14:31.894Z,101137.84
2023-05-19T23:17:01.808Z,101141.47
2023-05-19T23:19:32.288Z,101137.28
2023-05-19T23:22:03.238Z,101134.06
2023-05-19T23:24:32.185Z,101124.66
2023-05-19T23:27:01.169Z,101122.97
2023-05-19T23:29:29.772Z,101125.34
2023-05-19T23:31:58.402Z,101128.75
2023-05-19T23:34:27.108Z,101137.28
2023-05-19T23:36:55.694Z,101113.78
2023-05-19T23:39:26.130Z,101128.19
2023-05-19T23:41:54.733Z,101123.13
2023-05-19T23:44:23.332Z,101115.97
2023-05-19T23:46:52.053Z,101112.34
2023-05-19T23:49:20.914Z,101114.19
2023-05-19T23:51:49.909Z,101116.84
2023-05-19T23:54:18.577Z,101098.91
2023-05-19T23:56:48.622Z,101098.63
2023-05-19T23:59:17.321Z,101121.03
